Time;durP1;ratioP1;P1;durP2;ratioP2;P2;SDS_P1;SDS_P2;PMS_P1;PMS_P2;Temp;Humidity;BMP_temperature;BMP_pressure;BME280_temperature;BME280_humidity;BME280_pressure;Samples;Min_cycle;Max_cycle;Signal;HPM_P1;HPM_P2
2023/08/14 00:01:42;;;;;;;7.20;3.30;;;;;;;;;;5055156;28;20244;-27
2023/08/14 00:04:08;;;;;;;7.93;2.80;;;;;;;;;;5054580;28;20256;-27
2023/08/14 00:06:33;;;;;;;7.10;2.90;;;;;;;;;;5054506;28;20267;-27
2023/08/14 00:08:58;;;;;;;7.07;2.80;;;;;;;;;;5054449;28;20787;-27
2023/08/14 00:11:23;;;;;;;10.57;2.97;;;;;;;;;;5054307;28;20068;-27
2023/08/14 00:13:49;;;;;;;10.67;3.00;;;;;;;;;;5054428;28;20260;-27
2023/08/14 00:16:15;;;;;;;10.57;2.90;;;;;;;;;;5054181;28;20279;-27
2023/08/14 00:18:40;;;;;;;6.40;3.00;;;;;;;;;;5053015;28;20074;-27
2023/08/14 00:21:05;;;;;;;10.00;3.20;;;;;;;;;;5054250;28;20309;-27
2023/08/14 00:23:30;;;;;;;5.93;2.90;;;;;;;;;;5054214;28;20013;-27
2023/08/14 00:25:55;;;;;;;12.07;3.07;;;;;;;;;;5054158;28;20274;-27
2023/08/14 00:28:20;;;;;;;5.97;2.90;;;;;;;;;;5054107;28;20813;-27
2023/08/14 00:30:46;;;;;;;9.23;2.90;;;;;;;;;;5054043;28;20025;-27
2023/08/14 00:33:11;;;;;;;9.87;2.90;;;;;;;;;;5054320;28;20264;-27
2023/08/14 00:35:36;;;;;;;6.57;2.90;;;;;;;;;;5053899;28;20278;-27
2023/08/14 00:38:01;;;;;;;7.13;2.67;;;;;;;;;;5054224;28;20256;-27
2023/08/14 00:40:26;;;;;;;11.38;3.50;;;;;;;;;;5054140;28;20017;-27
2023/08/14 00:42:53;;;;;;;7.40;3.30;;;;;;;;;;5054448;28;20021;-26
2023/08/14 00:45:18;;;;;;;8.88;3.50;;;;;;;;;;5054104;28;20262;-26
2023/08/14 00:47:44;;;;;;;8.23;3.00;;;;;;;;;;5054073;28;20025;-26
2023/08/14 00:50:10;;;;;;;8.77;3.72;;;;;;;;;;5053665;28;20025;-26
2023/08/14 00:52:37;;;;;;;8.35;3.33;;;;;;;;;;5053036;28;20025;-26
2023/08/14 00:55:03;;;;;;;7.63;3.30;;;;;;;;;;5053867;28;20024;-26
2023/08/14 00:57:31;;;;;;;7.65;3.33;;;;;;;;;;5053862;28;20013;-26
2023/08/14 00:59:56;;;;;;;8.00;3.60;;;;;;;;;;5053546;28;20032;-26
2023/08/14 01:02:23;;;;;;;6.38;3.35;;;;;;;;;;5053547;28;20017;-27
2023/08/14 01:04:48;;;;;;;10.77;3.55;;;;;;;;;;5052238;28;20124;-27
2023/08/14 01:07:14;;;;;;;8.60;3.43;;;;;;;;;;5053520;28;20021;-26
2023/08/14 01:09:39;;;;;;;4.87;3.13;;;;;;;;;;5054028;28;20255;-26
2023/08/14 01:12:09;;;;;;;9.87;3.60;;;;;;;;;;5053270;28;20743;-26
2023/08/14 01:14:35;;;;;;;9.25;3.50;;;;;;;;;;5052001;28;20321;-26
2023/08/14 01:17:03;;;;;;;8.88;3.72;;;;;;;;;;5053324;28;20017;-26
2023/08/14 01:19:36;;;;;;;9.43;3.70;;;;;;;;;;5053586;28;20103;-27
2023/08/14 01:22:04;;;;;;;7.00;3.40;;;;;;;;;;5053549;28;20067;-27
2023/08/14 01:24:45;;;;;;;7.68;3.60;;;;;;;;;;5053284;28;20419;-26
2023/08/14 01:27:11;;;;;;;9.98;3.72;;;;;;;;;;5053455;28;20023;-27
2023/08/14 01:29:36;;;;;;;9.05;3.70;;;;;;;;;;5053477;28;20016;-27
2023/08/14 01:32:01;;;;;;;13.07;3.70;;;;;;;;;;5053853;28;20013;-27
2023/08/14 01:34:26;;;;;;;6.30;3.55;;;;;;;;;;5053455;28;20258;-27
2023/08/14 01:37:01;;;;;;;9.77;3.90;;;;;;;;;;5053131;28;20070;-27
2023/08/14 01:39:28;;;;;;;8.13;3.67;;;;;;;;;;5053209;28;20290;-27
2023/08/14 01:42:03;;;;;;;11.13;3.75;;;;;;;;;;5055568;28;20017;-27
2023/08/14 01:44:30;;;;;;;12.07;3.95;;;;;;;;;;5055999;28;20070;-27
2023/08/14 01:46:56;;;;;;;10.82;3.97;;;;;;;;;;5057157;28;20021;-27
2023/08/14 01:49:22;;;;;;;13.20;4.25;;;;;;;;;;5057120;28;20025;-27
2023/08/14 01:51:49;;;;;;;12.73;4.30;;;;;;;;;;5057085;28;20016;-27
2023/08/14 01:54:14;;;;;;;9.40;3.95;;;;;;;;;;5056988;28;20017;-27
2023/08/14 01:56:39;;;;;;;11.35;4.20;;;;;;;;;;5056964;28;20104;-27
2023/08/14 01:59:04;;;;;;;12.27;4.40;;;;;;;;;;5057545;28;20025;-27
2023/08/14 02:01:30;;;;;;;12.80;4.27;;;;;;;;;;5056965;28;20017;-27
2023/08/14 02:03:55;;;;;;;8.05;4.40;;;;;;;;;;5057405;28;20313;-27
2023/08/14 02:06:20;;;;;;;9.50;3.80;;;;;;;;;;5056848;28;20029;-27
2023/08/14 02:08:45;;;;;;;9.10;4.47;;;;;;;;;;5056797;28;20365;-27
2023/08/14 02:11:10;;;;;;;12.00;4.40;;;;;;;;;;5055566;28;20619;-27
2023/08/14 02:13:36;;;;;;;10.97;4.67;;;;;;;;;;5054565;28;20750;-27
2023/08/14 02:16:04;;;;;;;11.73;5.15;;;;;;;;;;5054851;28;20320;-27
2023/08/14 02:18:29;;;;;;;10.95;5.15;;;;;;;;;;5054992;28;20013;-27
2023/08/14 02:20:54;;;;;;;15.20;5.20;;;;;;;;;;5054711;28;20111;-27
2023/08/14 02:23:19;;;;;;;12.18;4.95;;;;;;;;;;5054830;28;20267;-27
2023/08/14 02:25:45;;;;;;;9.82;4.72;;;;;;;;;;5054814;28;20036;-27
2023/08/14 02:28:10;;;;;;;9.30;4.70;;;;;;;;;;5056923;28;20024;-27
2023/08/14 02:30:37;;;;;;;13.10;5.30;;;;;;;;;;5056823;28;20444;-27
2023/08/14 02:33:02;;;;;;;12.32;5.43;;;;;;;;;;5056305;28;20029;-27
2023/08/14 02:35:27;;;;;;;13.02;5.07;;;;;;;;;;5055822;28;20032;-27
2023/08/14 02:37:53;;;;;;;13.45;5.10;;;;;;;;;;5056226;28;20445;-27
2023/08/14 02:40:18;;;;;;;12.57;5.17;;;;;;;;;;5056453;28;20024;-27
2023/08/14 02:42:43;;;;;;;11.87;5.40;;;;;;;;;;5056169;28;20258;-27
2023/08/14 02:45:08;;;;;;;11.50;5.30;;;;;;;;;;5056088;28;20302;-27
2023/08/14 02:47:34;;;;;;;11.32;5.30;;;;;;;;;;5056069;28;20255;-27
2023/08/14 02:49:59;;;;;;;13.25;6.15;;;;;;;;;;5056310;28;20376;-27
2023/08/14 02:52:24;;;;;;;13.63;6.00;;;;;;;;;;5056008;28;20021;-27
2023/08/14 02:54:49;;;;;;;16.73;6.23;;;;;;;;;;5056345;28;20279;-27
2023/08/14 02:57:14;;;;;;;12.90;6.33;;;;;;;;;;5055891;28;20674;-27
2023/08/14 02:59:40;;;;;;;11.53;6.33;;;;;;;;;;5056380;28;20248;-27
2023/08/14 03:02:05;;;;;;;13.98;6.30;;;;;;;;;;5055756;28;20256;-27
2023/08/14 03:04:30;;;;;;;11.20;6.15;;;;;;;;;;5056079;28;20063;-27
2023/08/14 03:06:55;;;;;;;13.55;6.53;;;;;;;;;;5055910;28;20021;-27
2023/08/14 03:09:21;;;;;;;11.27;6.27;;;;;;;;;;5055662;28;20024;-27
2023/08/14 03:11:46;;;;;;;12.55;6.65;;;;;;;;;;5055697;28;20272;-27
2023/08/14 03:14:11;;;;;;;13.60;6.50;;;;;;;;;;5056169;28;20021;-27
2023/08/14 03:16:36;;;;;;;19.03;6.73;;;;;;;;;;5055486;28;20542;-27
2023/08/14 03:19:01;;;;;;;13.13;7.03;;;;;;;;;;5056083;28;20064;-27
2023/08/14 03:21:27;;;;;;;13.05;6.82;;;;;;;;;;5055394;28;20618;-27
2023/08/14 03:23:52;;;;;;;14.87;6.83;;;;;;;;;;5055707;28;20404;-27
2023/08/14 03:26:17;;;;;;;11.50;6.37;;;;;;;;;;5055365;28;20316;-27
2023/08/14 03:28:42;;;;;;;14.07;6.70;;;;;;;;;;5055937;28;20266;-27
2023/08/14 03:31:08;;;;;;;12.23;6.60;;;;;;;;;;5055122;28;20266;-27
2023/08/14 03:33:33;;;;;;;12.47;6.50;;;;;;;;;;5055298;28;20055;-27
2023/08/14 03:35:58;;;;;;;12.33;6.43;;;;;;;;;;5055067;28;20310;-27
2023/08/14 03:38:23;;;;;;;11.93;6.13;;;;;;;;;;5053888;28;20726;-27
2023/08/14 03:40:48;;;;;;;10.32;6.05;;;;;;;;;;5055360;28;20267;-27
2023/08/14 03:43:14;;;;;;;11.93;6.57;;;;;;;;;;5055120;28;20491;-27
2023/08/14 03:45:39;;;;;;;13.57;6.73;;;;;;;;;;5054927;28;20298;-27
2023/08/14 03:48:04;;;;;;;9.77;6.37;;;;;;;;;;5055495;28;20317;-27
2023/08/14 03:50:29;;;;;;;13.15;6.70;;;;;;;;;;5055175;28;20701;-27
2023/08/14 03:52:55;;;;;;;11.20;6.70;;;;;;;;;;5055443;28;20078;-27
2023/08/14 03:55:20;;;;;;;10.60;6.53;;;;;;;;;;5054729;28;20631;-27
2023/08/14 03:57:45;;;;;;;12.97;6.23;;;;;;;;;;5054772;28;20027;-27
2023/08/14 04:00:10;;;;;;;10.70;5.93;;;;;;;;;;5054657;28;20350;-27
2023/08/14 04:02:36;;;;;;;13.77;6.53;;;;;;;;;;5054659;28;20667;-27
2023/08/14 04:05:01;;;;;;;14.97;6.37;;;;;;;;;;5054126;28;20037;-27
2023/08/14 04:07:26;;;;;;;13.53;6.90;;;;;;;;;;5054576;28;20259;-27
2023/08/14 04:09:51;;;;;;;11.37;6.23;;;;;;;;;;5054546;28;20730;-27
2023/08/14 04:12:16;;;;;;;16.87;6.47;;;;;;;;;;5054347;28;20328;-27
2023/08/14 04:14:43;;;;;;;10.82;6.35;;;;;;;;;;5054276;28;20263;-27
2023/08/14 04:17:08;;;;;;;12.07;6.68;;;;;;;;;;5054434;28;20045;-27
2023/08/14 04:19:33;;;;;;;14.80;6.40;;;;;;;;;;5054635;28;20021;-27
2023/08/14 04:21:59;;;;;;;12.90;6.25;;;;;;;;;;5054838;28;20367;-27
2023/08/14 04:24:24;;;;;;;13.30;6.50;;;;;;;;;;5054534;28;20405;-27
2023/08/14 04:26:49;;;;;;;11.70;6.30;;;;;;;;;;5054431;28;20264;-27
2023/08/14 04:29:16;;;;;;;11.83;6.43;;;;;;;;;;5054234;28;20052;-27
2023/08/14 04:31:41;;;;;;;11.20;6.28;;;;;;;;;;5054331;28;20291;-27
2023/08/14 04:34:07;;;;;;;12.60;6.23;;;;;;;;;;5054647;28;20040;-27
2023/08/14 04:36:33;;;;;;;13.10;6.10;;;;;;;;;;5053957;28;20777;-27
2023/08/14 04:38:58;;;;;;;9.68;6.10;;;;;;;;;;5053961;28;20017;-27
2023/08/14 04:41:24;;;;;;;10.70;5.75;;;;;;;;;;5053947;28;20013;-26
2023/08/14 04:43:49;;;;;;;12.07;5.72;;;;;;;;;;5053891;28;20013;-26
2023/08/14 04:46:27;;;;;;;8.60;5.83;;;;;;;;;;5054326;28;20025;-26
2023/08/14 04:48:52;;;;;;;10.35;5.68;;;;;;;;;;5053815;28;20267;-26
2023/08/14 04:51:17;;;;;;;17.97;6.30;;;;;;;;;;5053763;28;20502;-26
2023/08/14 04:53:42;;;;;;;13.23;6.10;;;;;;;;;;5053775;28;20262;-26
2023/08/14 04:56:08;;;;;;;11.13;5.95;;;;;;;;;;5054117;28;20325;-26
2023/08/14 04:58:33;;;;;;;10.37;5.67;;;;;;;;;;5053923;28;20078;-26
2023/08/14 05:00:58;;;;;;;11.63;5.73;;;;;;;;;;5053607;28;20087;-26
2023/08/14 05:03:23;;;;;;;10.73;5.60;;;;;;;;;;5054137;28;20255;-26
2023/08/14 05:05:51;;;;;;;9.70;5.82;;;;;;;;;;5053832;28;20263;-26
2023/08/14 05:08:17;;;;;;;12.60;5.70;;;;;;;;;;5053499;28;20100;-26
2023/08/14 05:10:42;;;;;;;9.77;5.60;;;;;;;;;;5053305;28;20076;-26
2023/08/14 05:13:07;;;;;;;10.87;5.60;;;;;;;;;;5053686;28;20029;-27
2023/08/14 05:15:32;;;;;;;8.73;5.43;;;;;;;;;;5052778;28;20804;-28
2023/08/14 05:17:57;;;;;;;11.00;5.20;;;;;;;;;;5053012;28;20259;-26
2023/08/14 05:20:23;;;;;;;10.27;5.60;;;;;;;;;;5053658;28;20260;-27
2023/08/14 05:22:48;;;;;;;13.30;5.00;;;;;;;;;;5053528;28;20610;-26
2023/08/14 05:25:13;;;;;;;10.27;4.87;;;;;;;;;;5053299;28;20380;-26
2023/08/14 05:27:38;;;;;;;10.88;5.10;;;;;;;;;;5053589;28;20024;-26
2023/08/14 05:30:05;;;;;;;11.93;5.20;;;;;;;;;;5053494;28;20036;-26
2023/08/14 05:32:30;;;;;;;11.30;5.22;;;;;;;;;;5053179;28;20108;-27
2023/08/14 05:34:55;;;;;;;10.60;5.45;;;;;;;;;;5053419;28;20112;-27
2023/08/14 05:37:20;;;;;;;11.13;5.00;;;;;;;;;;5053217;28;20071;-26
2023/08/14 05:39:45;;;;;;;15.13;5.57;;;;;;;;;;5053185;28;20305;-26
2023/08/14 05:42:11;;;;;;;13.37;5.30;;;;;;;;;;5053183;28;20248;-26
2023/08/14 05:44:36;;;;;;;7.50;4.80;;;;;;;;;;5053183;28;20659;-27
2023/08/14 05:47:01;;;;;;;11.13;4.90;;;;;;;;;;5053037;28;20263;-26
2023/08/14 05:49:27;;;;;;;9.53;5.43;;;;;;;;;;5053248;28;20347;-26
2023/08/14 05:51:52;;;;;;;8.88;5.65;;;;;;;;;;5053290;28;20343;-26
2023/08/14 05:54:17;;;;;;;10.18;5.43;;;;;;;;;;5053276;28;20021;-26
2023/08/14 05:56:43;;;;;;;12.17;4.97;;;;;;;;;;5053535;28;20017;-26
2023/08/14 05:59:09;;;;;;;11.77;5.25;;;;;;;;;;5053193;28;20596;-26
2023/08/14 06:01:34;;;;;;;10.60;5.80;;;;;;;;;;5053228;28;20021;-27
2023/08/14 06:03:59;;;;;;;11.17;5.37;;;;;;;;;;5053931;28;20260;-27
2023/08/14 06:06:24;;;;;;;12.30;5.53;;;;;;;;;;5053188;28;20252;-27
2023/08/14 06:08:50;;;;;;;14.77;6.22;;;;;;;;;;5053127;28;20045;-27
2023/08/14 06:11:15;;;;;;;9.97;5.90;;;;;;;;;;5052656;28;20067;-27
2023/08/14 06:13:40;;;;;;;11.60;5.87;;;;;;;;;;5052806;28;20043;-27
2023/08/14 06:16:05;;;;;;;10.65;5.88;;;;;;;;;;5052774;28;20298;-27
2023/08/14 06:18:31;;;;;;;11.23;6.20;;;;;;;;;;5052525;28;20009;-27
2023/08/14 06:20:56;;;;;;;11.47;5.57;;;;;;;;;;5052256;28;20453;-27
2023/08/14 06:23:21;;;;;;;10.60;5.70;;;;;;;;;;5052322;28;20045;-27
2023/08/14 06:25:46;;;;;;;11.47;5.30;;;;;;;;;;5052277;28;20303;-27
2023/08/14 06:28:12;;;;;;;14.23;5.00;;;;;;;;;;5054596;28;20422;-27
2023/08/14 06:30:37;;;;;;;7.97;4.97;;;;;;;;;;5055587;28;20768;-26
2023/08/14 06:33:02;;;;;;;7.63;5.00;;;;;;;;;;5055756;28;20259;-27
2023/08/14 06:35:27;;;;;;;10.05;5.00;;;;;;;;;;5056409;28;20487;-27
2023/08/14 06:37:52;;;;;;;7.20;4.75;;;;;;;;;;5055061;28;20024;-27
2023/08/14 06:40:18;;;;;;;7.07;4.53;;;;;;;;;;5055240;28;20017;-27
2023/08/14 06:42:43;;;;;;;11.07;4.53;;;;;;;;;;5055859;28;20259;-27
2023/08/14 06:45:09;;;;;;;7.90;4.17;;;;;;;;;;5056620;28;20017;-27
2023/08/14 06:47:41;;;;;;;8.38;4.40;;;;;;;;;;5056398;28;20021;-27
2023/08/14 06:50:07;;;;;;;8.43;4.38;;;;;;;;;;5056039;28;20510;-27
2023/08/14 06:52:32;;;;;;;9.75;3.90;;;;;;;;;;5056467;28;20025;-27
2023/08/14 06:54:57;;;;;;;8.82;4.13;;;;;;;;;;5056012;28;20021;-26
2023/08/14 06:57:22;;;;;;;8.00;3.90;;;;;;;;;;5056085;28;20433;-27
2023/08/14 06:59:48;;;;;;;9.97;3.80;;;;;;;;;;5056091;28;20790;-28
2023/08/14 07:02:13;;;;;;;9.23;3.70;;;;;;;;;;5055693;28;20035;-26
2023/08/14 07:04:38;;;;;;;10.10;3.77;;;;;;;;;;5056287;28;20062;-26
2023/08/14 07:07:03;;;;;;;7.17;3.70;;;;;;;;;;5055937;28;20460;-27
2023/08/14 07:09:28;;;;;;;7.40;3.30;;;;;;;;;;5055670;28;20024;-27
2023/08/14 07:11:54;;;;;;;8.52;2.90;;;;;;;;;;5055470;28;20295;-27
2023/08/14 07:14:19;;;;;;;6.20;3.00;;;;;;;;;;5055613;28;20020;-26
2023/08/14 07:16:44;;;;;;;6.68;2.80;;;;;;;;;;5055779;28;20421;-27
2023/08/14 07:19:09;;;;;;;10.32;3.13;;;;;;;;;;5055408;28;20021;-27
2023/08/14 07:21:35;;;;;;;6.07;2.87;;;;;;;;;;5056008;28;20158;-27
2023/08/14 07:24:00;;;;;;;5.93;2.57;;;;;;;;;;5055388;28;20096;-27
2023/08/14 07:26:25;;;;;;;9.10;2.33;;;;;;;;;;5055582;28;20369;-27
2023/08/14 07:28:50;;;;;;;8.03;2.00;;;;;;;;;;5055850;28;20025;-27
2023/08/14 07:31:16;;;;;;;5.63;2.20;;;;;;;;;;5055687;28;20028;-27
2023/08/14 07:33:41;;;;;;;5.47;2.10;;;;;;;;;;5055777;28;20017;-27
2023/08/14 07:36:06;;;;;;;6.10;1.90;;;;;;;;;;5055590;28;20363;-27
2023/08/14 07:38:32;;;;;;;7.25;1.90;;;;;;;;;;5054913;28;20363;-27
2023/08/14 07:40:57;;;;;;;3.88;1.70;;;;;;;;;;5054849;28;20025;-27
2023/08/14 07:43:22;;;;;;;4.53;1.70;;;;;;;;;;5055641;28;20021;-27
2023/08/14 07:45:48;;;;;;;3.00;1.50;;;;;;;;;;5055239;28;20024;-27
2023/08/14 07:48:13;;;;;;;5.10;1.83;;;;;;;;;;5054936;28;20036;-27
2023/08/14 07:50:38;;;;;;;3.63;1.35;;;;;;;;;;5055246;28;20053;-27
2023/08/14 07:53:04;;;;;;;4.57;1.37;;;;;;;;;;5054910;28;20025;-27
2023/08/14 07:55:29;;;;;;;4.75;1.67;;;;;;;;;;5054662;28;20028;-27
2023/08/14 07:57:54;;;;;;;4.53;1.40;;;;;;;;;;5055299;28;20088;-27
2023/08/14 08:00:19;;;;;;;5.05;1.58;;;;;;;;;;5054958;28;20039;-27
2023/08/14 08:02:45;;;;;;;4.15;1.45;;;;;;;;;;5054731;28;20480;-27
2023/08/14 08:05:10;;;;;;;2.97;1.60;;;;;;;;;;5054863;28;20032;-27
2023/08/14 08:07:35;;;;;;;3.93;1.50;;;;;;;;;;5054827;28;20017;-27
2023/08/14 08:10:02;;;;;;;4.13;1.40;;;;;;;;;;5054490;28;20665;-27
2023/08/14 08:12:27;;;;;;;3.40;1.40;;;;;;;;;;5054400;28;20041;-27
2023/08/14 08:14:53;;;;;;;3.05;1.20;;;;;;;;;;5054360;28;20021;-27
2023/08/14 08:17:18;;;;;;;3.17;1.47;;;;;;;;;;5054892;28;20024;-27
2023/08/14 08:19:45;;;;;;;4.03;1.53;;;;;;;;;;5054563;28;20415;-27
2023/08/14 08:22:11;;;;;;;6.20;1.63;;;;;;;;;;5054252;28;20082;-27
2023/08/14 08:24:36;;;;;;;3.67;1.47;;;;;;;;;;5052912;28;20017;-28
2023/08/14 08:27:01;;;;;;;3.50;1.30;;;;;;;;;;5054195;28;20021;-27
2023/08/14 08:29:26;;;;;;;4.77;1.40;;;;;;;;;;5054220;28;20484;-28
2023/08/14 08:31:51;;;;;;;5.63;1.70;;;;;;;;;;5053953;28;20017;-27
2023/08/14 08:34:17;;;;;;;5.37;1.30;;;;;;;;;;5054648;28;20027;-27
2023/08/14 08:36:42;;;;;;;7.73;1.57;;;;;;;;;;5054010;28;20021;-27
2023/08/14 08:39:07;;;;;;;4.80;1.20;;;;;;;;;;5054294;28;20387;-27
2023/08/14 08:41:35;;;;;;;6.30;1.60;;;;;;;;;;5054559;28;20043;-27
2023/08/14 08:44:15;;;;;;;4.63;1.35;;;;;;;;;;5054169;28;20009;-27
2023/08/14 08:46:49;;;;;;;4.53;1.38;;;;;;;;;;5053382;28;20025;-27
2023/08/14 08:49:14;;;;;;;4.10;1.33;;;;;;;;;;5053793;28;20479;-27
2023/08/14 08:51:40;;;;;;;6.95;1.83;;;;;;;;;;5053177;28;20032;-27
2023/08/14 08:54:05;;;;;;;11.52;1.80;;;;;;;;;;5053276;28;20471;-27
2023/08/14 08:56:31;;;;;;;5.00;1.80;;;;;;;;;;5053189;28;20021;-27
2023/08/14 08:58:56;;;;;;;4.97;1.83;;;;;;;;;;5053118;28;20017;-27
2023/08/14 09:01:22;;;;;;;5.25;1.80;;;;;;;;;;5053760;28;20488;-27
2023/08/14 09:03:47;;;;;;;6.47;2.15;;;;;;;;;;5053618;28;20017;-27
2023/08/14 09:06:12;;;;;;;6.88;1.88;;;;;;;;;;5053593;28;20021;-27
2023/08/14 09:08:38;;;;;;;7.90;2.07;;;;;;;;;;5054584;28;20032;-27
2023/08/14 09:11:03;;;;;;;6.20;2.20;;;;;;;;;;5053594;28;20287;-27
2023/08/14 09:13:29;;;;;;;6.33;2.00;;;;;;;;;;5052340;28;20017;-27
2023/08/14 09:15:54;;;;;;;6.70;2.03;;;;;;;;;;5053435;28;20395;-27
2023/08/14 09:18:19;;;;;;;9.90;2.37;;;;;;;;;;5053418;28;20100;-27
2023/08/14 09:20:44;;;;;;;8.67;2.17;;;;;;;;;;5053452;28;20474;-27
2023/08/14 09:23:11;;;;;;;10.97;2.80;;;;;;;;;;5053368;28;20017;-27
2023/08/14 09:25:36;;;;;;;4.43;2.20;;;;;;;;;;5053635;28;20653;-27
2023/08/14 09:28:01;;;;;;;8.37;2.40;;;;;;;;;;5053308;28;20123;-27
2023/08/14 09:30:27;;;;;;;7.97;2.45;;;;;;;;;;5053145;28;20263;-28
2023/08/14 09:32:53;;;;;;;6.65;2.00;;;;;;;;;;5053489;28;20051;-27
2023/08/14 09:35:18;;;;;;;11.52;2.30;;;;;;;;;;5053479;28;20018;-27
2023/08/14 09:37:44;;;;;;;10.15;2.42;;;;;;;;;;5053508;28;20025;-27
2023/08/14 09:40:18;;;;;;;6.72;2.30;;;;;;;;;;5053182;28;20025;-27
2023/08/14 09:42:45;;;;;;;6.38;2.00;;;;;;;;;;5053440;28;20045;-27
2023/08/14 09:45:11;;;;;;;7.45;2.22;;;;;;;;;;5053643;28;20028;-27
2023/08/14 09:47:37;;;;;;;6.95;2.03;;;;;;;;;;5053389;28;20044;-27
2023/08/14 09:50:03;;;;;;;10.20;2.70;;;;;;;;;;5053348;28;20487;-27
2023/08/14 09:52:28;;;;;;;6.38;2.33;;;;;;;;;;5052216;28;20055;-27
2023/08/14 09:54:54;;;;;;;8.60;2.40;;;;;;;;;;5053156;28;20376;-27
2023/08/14 09:57:24;;;;;;;13.07;3.03;;;;;;;;;;5053251;28;20025;-28
2023/08/14 09:59:49;;;;;;;9.48;2.80;;;;;;;;;;5053082;28;20017;-27
2023/08/14 10:02:15;;;;;;;9.32;2.58;;;;;;;;;;5054253;28;20357;-27
2023/08/14 10:04:41;;;;;;;7.93;2.55;;;;;;;;;;5056900;28;20047;-27
2023/08/14 10:07:07;;;;;;;8.52;2.30;;;;;;;;;;5057139;28;20017;-27
2023/08/14 10:09:33;;;;;;;8.32;2.25;;;;;;;;;;5056710;28;20017;-27
2023/08/14 10:12:02;;;;;;;7.97;2.40;;;;;;;;;;5057114;28;20053;-27
2023/08/14 10:14:28;;;;;;;8.82;2.30;;;;;;;;;;5056544;28;20029;-27
2023/08/14 10:16:54;;;;;;;10.25;2.50;;;;;;;;;;5056733;28;20033;-27
2023/08/14 10:19:21;;;;;;;9.30;2.25;;;;;;;;;;5057666;28;20028;-27
2023/08/14 10:21:49;;;;;;;10.23;2.60;;;;;;;;;;5057102;28;20047;-27
2023/08/14 10:24:15;;;;;;;10.23;2.67;;;;;;;;;;5056549;28;20013;-26
2023/08/14 10:26:40;;;;;;;7.97;2.38;;;;;;;;;;5055786;28;20028;-26
2023/08/14 10:29:05;;;;;;;5.75;2.30;;;;;;;;;;5056987;28;20032;-27
2023/08/14 10:31:31;;;;;;;7.23;2.40;;;;;;;;;;5056524;28;20074;-27
2023/08/14 10:33:58;;;;;;;7.97;2.42;;;;;;;;;;5056185;28;20494;-26
2023/08/14 10:36:26;;;;;;;8.13;2.47;;;;;;;;;;5056201;28;20021;-26
2023/08/14 10:38:51;;;;;;;5.45;2.10;;;;;;;;;;5056167;28;20071;-26
2023/08/14 10:41:17;;;;;;;6.30;2.07;;;;;;;;;;5056727;28;20044;-26
2023/08/14 10:43:43;;;;;;;8.20;2.53;;;;;;;;;;5056088;28;20025;-26
2023/08/14 10:46:09;;;;;;;6.28;1.98;;;;;;;;;;5055932;28;20017;-27
2023/08/14 10:48:35;;;;;;;8.25;2.45;;;;;;;;;;5056013;28;20068;-26
2023/08/14 10:51:01;;;;;;;7.18;2.38;;;;;;;;;;5056018;28;20047;-27
2023/08/14 10:53:28;;;;;;;11.82;3.17;;;;;;;;;;5056010;28;20371;-27
2023/08/14 10:55:53;;;;;;;10.27;2.60;;;;;;;;;;5056143;28;20108;-26
2023/08/14 10:58:28;;;;;;;6.97;2.43;;;;;;;;;;5056664;28;20417;-27
2023/08/14 11:00:54;;;;;;;7.65;2.17;;;;;;;;;;5056046;28;20251;-27
2023/08/14 11:03:19;;;;;;;7.47;2.15;;;;;;;;;;5055719;28;20349;-26
2023/08/14 11:05:44;;;;;;;7.27;2.20;;;;;;;;;;5055758;28;20025;-27
2023/08/14 11:08:11;;;;;;;7.93;2.33;;;;;;;;;;5056220;28;20032;-27
2023/08/14 11:10:36;;;;;;;6.43;2.05;;;;;;;;;;5055720;28;20029;-26
2023/08/14 11:13:02;;;;;;;5.30;2.20;;;;;;;;;;5055755;28;20025;-27
2023/08/14 11:15:30;;;;;;;6.50;2.17;;;;;;;;;;5054725;28;20478;-26
2023/08/14 11:17:55;;;;;;;7.18;2.28;;;;;;;;;;5055551;28;20071;-27
2023/08/14 11:20:20;;;;;;;8.35;2.25;;;;;;;;;;5055452;28;20021;-26
2023/08/14 11:22:46;;;;;;;10.90;2.72;;;;;;;;;;5055792;28;20533;-27
2023/08/14 11:25:15;;;;;;;9.52;2.38;;;;;;;;;;5055364;28;20024;-27
2023/08/14 11:27:40;;;;;;;8.18;2.17;;;;;;;;;;5055318;28;20349;-27
2023/08/14 11:30:06;;;;;;;8.20;2.27;;;;;;;;;;5055194;28;20032;-27
2023/08/14 11:32:31;;;;;;;5.45;1.88;;;;;;;;;;5055056;28;20017;-26
2023/08/14 11:34:56;;;;;;;6.80;2.10;;;;;;;;;;5055537;28;20025;-27
2023/08/14 11:37:21;;;;;;;7.15;2.17;;;;;;;;;;5055424;28;20278;-27
2023/08/14 11:39:47;;;;;;;6.50;2.20;;;;;;;;;;5054982;28;20009;-27
2023/08/14 11:42:12;;;;;;;8.13;2.07;;;;;;;;;;5055214;28;20031;-27
2023/08/14 11:44:37;;;;;;;7.22;2.00;;;;;;;;;;5054941;28;20024;-27
2023/08/14 11:47:03;;;;;;;8.10;2.05;;;;;;;;;;5055236;28;20021;-27
2023/08/14 11:49:30;;;;;;;8.18;2.28;;;;;;;;;;5055233;28;20023;-27
2023/08/14 11:51:56;;;;;;;4.45;1.77;;;;;;;;;;5054741;28;20040;-27
2023/08/14 11:54:21;;;;;;;7.50;1.98;;;;;;;;;;5053567;28;20021;-27
2023/08/14 11:56:47;;;;;;;6.00;1.70;;;;;;;;;;5054711;28;20100;-26
2023/08/14 11:59:12;;;;;;;8.40;2.10;;;;;;;;;;5054767;28;20027;-27
2023/08/14 12:01:37;;;;;;;6.33;2.20;;;;;;;;;;5054880;28;20028;-27
2023/08/14 12:04:03;;;;;;;5.47;2.00;;;;;;;;;;5054852;28;20016;-27
2023/08/14 12:06:29;;;;;;;6.30;1.83;;;;;;;;;;5054566;28;20025;-27
2023/08/14 12:08:54;;;;;;;5.00;1.80;;;;;;;;;;5054618;28;20058;-28
2023/08/14 12:11:20;;;;;;;5.63;1.97;;;;;;;;;;5054634;28;20571;-27
2023/08/14 12:13:51;;;;;;;4.40;1.50;;;;;;;;;;5054392;28;20262;-27
2023/08/14 12:16:16;;;;;;;6.50;1.80;;;;;;;;;;5054570;28;20374;-27
2023/08/14 12:18:42;;;;;;;3.60;1.50;;;;;;;;;;5054858;28;20056;-26
2023/08/14 12:21:14;;;;;;;9.55;2.13;;;;;;;;;;5053768;28;20472;-27
2023/08/14 12:23:49;;;;;;;6.45;2.03;;;;;;;;;;5054300;28;20021;-26
2023/08/14 12:26:14;;;;;;;6.93;2.15;;;;;;;;;;5054381;28;20036;-26
2023/08/14 12:28:40;;;;;;;6.22;1.80;;;;;;;;;;5054041;28;20039;-26
2023/08/14 12:31:05;;;;;;;5.72;2.00;;;;;;;;;;5054045;28;20071;-26
2023/08/14 12:33:31;;;;;;;4.37;1.60;;;;;;;;;;5054589;28;20078;-26
2023/08/14 12:35:56;;;;;;;11.77;2.03;;;;;;;;;;5054192;28;20286;-26
2023/08/14 12:38:21;;;;;;;7.10;2.00;;;;;;;;;;5053989;28;20418;-27
2023/08/14 12:40:46;;;;;;;3.47;1.63;;;;;;;;;;5054455;28;20254;-27
2023/08/14 12:43:12;;;;;;;6.60;2.28;;;;;;;;;;5055069;28;20338;-27
2023/08/14 12:45:37;;;;;;;8.13;2.10;;;;;;;;;;5053897;28;20025;-27
2023/08/14 12:48:02;;;;;;;7.13;1.90;;;;;;;;;;5054428;28;20020;-27
2023/08/14 12:50:27;;;;;;;5.65;1.95;;;;;;;;;;5053821;28;20449;-27
2023/08/14 12:52:53;;;;;;;6.97;1.87;;;;;;;;;;5053635;28;20379;-27
2023/08/14 12:55:18;;;;;;;8.70;2.00;;;;;;;;;;5053774;28;20368;-27
2023/08/14 12:57:43;;;;;;;5.53;2.00;;;;;;;;;;5053637;28;20028;-27
2023/08/14 13:00:09;;;;;;;6.03;1.90;;;;;;;;;;5054101;28;20029;-27
2023/08/14 13:02:34;;;;;;;8.77;2.10;;;;;;;;;;5053560;28;20043;-26
2023/08/14 13:04:59;;;;;;;10.43;2.00;;;;;;;;;;5053531;28;20021;-27
2023/08/14 13:07:26;;;;;;;6.80;2.00;;;;;;;;;;5053521;28;20274;-27
2023/08/14 13:09:51;;;;;;;7.18;1.95;;;;;;;;;;5053730;28;20262;-27
2023/08/14 13:12:16;;;;;;;4.23;1.63;;;;;;;;;;5053240;28;20045;-27
2023/08/14 13:14:41;;;;;;;9.65;2.10;;;;;;;;;;5053662;28;20017;-27
2023/08/14 13:17:07;;;;;;;6.03;1.80;;;;;;;;;;5052048;28;20060;-27
2023/08/14 13:19:32;;;;;;;7.83;2.00;;;;;;;;;;5053342;28;20044;-27
2023/08/14 13:21:57;;;;;;;7.70;1.97;;;;;;;;;;5053911;28;20036;-27
2023/08/14 13:24:22;;;;;;;8.50;2.17;;;;;;;;;;5053384;28;20016;-27
2023/08/14 13:26:47;;;;;;;7.10;1.97;;;;;;;;;;5053839;28;20036;-27
2023/08/14 13:29:13;;;;;;;4.77;1.70;;;;;;;;;;5053768;28;20263;-27
2023/08/14 13:31:38;;;;;;;7.93;2.03;;;;;;;;;;5053109;28;20021;-27
2023/08/14 13:34:03;;;;;;;5.73;2.13;;;;;;;;;;5053226;28;20086;-27
2023/08/14 13:36:28;;;;;;;6.70;1.90;;;;;;;;;;5053063;28;20033;-27
2023/08/14 13:38:53;;;;;;;7.33;1.93;;;;;;;;;;5056526;28;20251;-27
2023/08/14 13:41:19;;;;;;;5.33;1.70;;;;;;;;;;5057192;28;20263;-27
2023/08/14 13:43:44;;;;;;;7.03;2.05;;;;;;;;;;5057513;28;20097;-27
2023/08/14 13:46:09;;;;;;;6.43;1.50;;;;;;;;;;5057503;28;20082;-27
2023/08/14 13:48:34;;;;;;;5.90;1.90;;;;;;;;;;5057521;28;20756;-28
2023/08/14 13:50:59;;;;;;;5.33;1.80;;;;;;;;;;5057046;28;20021;-27
2023/08/14 13:53:25;;;;;;;6.10;2.00;;;;;;;;;;5057370;28;20119;-27
2023/08/14 13:55:50;;;;;;;6.40;1.90;;;;;;;;;;5057000;28;20287;-27
2023/08/14 13:58:15;;;;;;;9.03;2.23;;;;;;;;;;5056956;28;20025;-27
2023/08/14 14:00:40;;;;;;;7.13;1.80;;;;;;;;;;5056899;28;20055;-27
2023/08/14 14:03:06;;;;;;;4.67;1.63;;;;;;;;;;5056843;28;20259;-26
2023/08/14 14:05:31;;;;;;;6.53;2.03;;;;;;;;;;5057059;28;20028;-27
2023/08/14 14:07:56;;;;;;;5.60;1.98;;;;;;;;;;5057308;28;20047;-27
2023/08/14 14:10:21;;;;;;;5.03;1.90;;;;;;;;;;5056624;28;20028;-27
2023/08/14 14:12:47;;;;;;;6.65;1.60;;;;;;;;;;5056718;28;20240;-26
2023/08/14 14:15:12;;;;;;;5.00;1.73;;;;;;;;;;5056797;28;20021;-27
2023/08/14 14:17:37;;;;;;;6.50;1.90;;;;;;;;;;5056674;28;20013;-27
2023/08/14 14:20:04;;;;;;;6.90;2.20;;;;;;;;;;5057048;28;20032;-28
2023/08/14 14:22:29;;;;;;;5.25;2.00;;;;;;;;;;5055235;28;20013;-27
2023/08/14 14:24:54;;;;;;;6.93;2.00;;;;;;;;;;5056908;28;20092;-26
2023/08/14 14:27:20;;;;;;;5.53;1.90;;;;;;;;;;5056899;28;20255;-27
2023/08/14 14:29:45;;;;;;;7.00;2.03;;;;;;;;;;5056525;28;20259;-26